메인 페이지
METAR-TAF:

공항 :

칭다오, 중국

칭다오 류팅 국제공항

위도: 36-04N, 경도: 120-20E, 고도: 77m

현재 날씨관측

예보는 39분 전, 22:00시(UTC)에 발표되었습니다.
여러 방향의 바람 2kt
온도 20°C
습도 53%
기압 1009 hPa
시정 10km 이상
1500m 미만 상공 구름 및 적란운 없음

METAR: ZSQD 252200Z VRB01MPS CAVOK 20/10 Q1009 NOSIG

시각: 06:39 (22:39 UTC)

예보

예보는 7 시간 27분 전, 15:12시(UTC)에 발표되었습니다.
예보 대상 시간: 25일 18시부터 26일 18시까지 (UTC)
6kt
시정: 5000m
박무
전환 중
26일 03시부터 26일 04시까지 (UTC)
8kt

TAF: ZSQD 251512Z 2518/2618 18003MPS 5000 BR NSC TX30/2606Z TN17/2521Z BECMG 2603/2604 36004MPS

METAR-TAF

4,000개 이상의 공항 관측 자료 및 예보 (METAR 및 TAF 보고).

지도상에서 검색 가능한 기상관측소가 노란 점과 빨간 점으로 표시되어 있습니다.

기상관측소 명을 보려면 표시 위로 마우스를 이동하세요.

날씨 관측과 예보를 보려면 클릭하세요.

지도 변경 : 확대하려면 엑스 표시가 있는 녹색 버튼, 축소하려면 빼기 표시가 있는 녹색 버튼, 다음 페이지의 지도를 보려면 녹색 화살표를 클릭하세요.


METAR-TAF: